createdAt,value
2017-08-11T00:00:53.266Z,20.55
2017-08-11T00:02:03.527Z,20.54
2017-08-11T00:03:13.803Z,20.5
2017-08-11T00:04:23.429Z,20.43
2017-08-11T00:05:33.350Z,20.57
2017-08-11T00:06:43.271Z,20.43
2017-08-11T00:07:53.520Z,20.58
2017-08-11T00:09:03.156Z,20.51
2017-08-11T00:10:12.759Z,20.54
2017-08-11T00:11:22.989Z,20.5
2017-08-11T00:12:33.236Z,20.48
2017-08-11T00:13:42.851Z,20.51
2017-08-11T00:14:52.796Z,20.39
2017-08-11T00:16:02.716Z,20.54
2017-08-11T00:17:12.954Z,20.5
2017-08-11T00:18:22.564Z,20.52
2017-08-11T00:19:31.886Z,20.55
2017-08-11T00:20:41.953Z,20.54
2017-08-11T00:21:51.883Z,20.54
2017-08-11T00:23:02.097Z,20.43
2017-08-11T00:24:12.010Z,20.48
2017-08-11T00:25:21.922Z,20.52
2017-08-11T00:26:31.830Z,20.57
2017-08-11T00:27:41.762Z,20.57
2017-08-11T00:28:51.984Z,20.43
2017-08-11T00:30:02.242Z,20.52
2017-08-11T00:31:11.864Z,20.55
2017-08-11T00:32:21.627Z,20.5
2017-08-11T00:33:31.539Z,20.48
2017-08-11T00:34:41.795Z,20.47
2017-08-11T00:35:51.715Z,20.42
2017-08-11T00:37:01.352Z,20.39
2017-08-11T00:38:11.288Z,20.42
2017-08-11T00:39:20.910Z,20.52
2017-08-11T00:40:31.136Z,20.36
2017-08-11T00:41:41.049Z,20.41
2017-08-11T00:42:50.979Z,20.36
2017-08-11T00:44:00.742Z,20.38
2017-08-11T00:45:10.384Z,20.42
2017-08-11T00:46:20.325Z,20.39
2017-08-11T00:47:30.562Z,20.41
2017-08-11T00:48:40.479Z,20.39
2017-08-11T00:49:50.500Z,20.42
2017-08-11T00:50:59.817Z,20.41
2017-08-11T00:52:09.739Z,20.39
2017-08-11T00:53:19.989Z,20.38
2017-08-11T00:54:29.599Z,20.38
2017-08-11T00:55:39.381Z,20.35
2017-08-11T00:56:49.610Z,20.38
2017-08-11T00:57:59.860Z,20.36
2017-08-11T00:59:10.114Z,20.31
2017-08-11T01:00:20.350Z,20.35
2017-08-11T01:01:30.273Z,20.33
2017-08-11T01:02:40.208Z,20.33
2017-08-11T01:03:50.459Z,20.35
2017-08-11T01:05:00.706Z,20.35
2017-08-11T01:06:10.935Z,20.41
2017-08-11T01:07:21.013Z,20.38
2017-08-11T01:08:30.943Z,20.28
2017-08-11T01:09:40.558Z,20.42
2017-08-11T01:10:50.486Z,20.38
2017-08-11T01:12:00.729Z,20.28
2017-08-11T01:13:10.692Z,20.36
2017-08-11T01:14:20.341Z,20.31
2017-08-11T01:15:30.268Z,20.26
2017-08-11T01:16:40.207Z,20.14
2017-08-11T01:17:50.447Z,20.14
2017-08-11T01:19:00.420Z,20.16
2017-08-11T01:20:10.644Z,20.32
2017-08-11T01:21:20.882Z,20.16
2017-08-11T01:22:30.814Z,20.29
2017-08-11T01:23:40.768Z,20.16
2017-08-11T01:24:50.854Z,20.21
2017-08-11T01:26:00.466Z,20.16
2017-08-11T01:27:10.701Z,20.17
2017-08-11T01:28:20.939Z,20.24
2017-08-11T01:29:30.250Z,20.16
2017-08-11T01:30:39.866Z,20.17
2017-08-11T01:31:49.188Z,20.26
2017-08-11T01:32:58.812Z,20.24
2017-08-11T01:34:08.428Z,20.2
2017-08-11T01:35:18.366Z,20.17
2017-08-11T01:36:28.344Z,20.13
2017-08-11T01:37:38.572Z,20.13
2017-08-11T01:38:48.487Z,20.05
2017-08-11T01:39:57.794Z,20.13
2017-08-11T01:41:07.104Z,20.14
2017-08-11T01:42:17.631Z,20.14
2017-08-11T01:43:27.586Z,20.1
2017-08-11T01:44:37.202Z,20.08
2017-08-11T01:45:47.128Z,20.06
2017-08-11T01:46:57.359Z,20.1
2017-08-11T01:48:07.610Z,20.1
2017-08-11T01:49:17.845Z,20.08
2017-08-11T01:50:27.454Z,20.21
2017-08-11T01:51:37.671Z,20.1
2017-08-11T01:52:47.274Z,20.08
2017-08-11T01:53:57.192Z,20.2
2017-08-11T01:55:07.415Z,20.11
2017-08-11T01:56:17.682Z,20.17
2017-08-11T01:57:27.916Z,20.17
2017-08-11T01:58:37.828Z,20.17
2017-08-11T01:59:47.592Z,20.2
2017-08-11T02:00:56.934Z,20.11
2017-08-11T02:02:06.606Z,20.08
2017-08-11T02:03:16.528Z,20.1
2017-08-11T02:04:26.143Z,20.14
2017-08-11T02:05:36.207Z,20.11
2017-08-11T02:06:45.812Z,20.11
2017-08-11T02:07:55.425Z,20.17
2017-08-11T02:09:05.679Z,20.05
2017-08-11T02:10:15.592Z,20.24
2017-08-11T02:11:25.867Z,20.13
2017-08-11T02:12:36.090Z,20.21
2017-08-11T02:13:46.319Z,20.08
2017-08-11T02:14:55.928Z,20.06
2017-08-11T02:16:06.149Z,20.14
2017-08-11T02:17:16.219Z,20.1
2017-08-11T02:18:25.839Z,20.13
2017-08-11T02:19:36.084Z,20.08
2017-08-11T02:20:46.301Z,20.03
2017-08-11T02:21:56.212Z,19.98
2017-08-11T02:23:05.830Z,19.99
2017-08-11T02:24:16.060Z,20.05
2017-08-11T02:25:25.975Z,20.02
2017-08-11T02:26:35.892Z,19.98
2017-08-11T02:27:45.808Z,20.03
2017-08-11T02:28:56.183Z,20.03
2017-08-11T02:30:05.175Z,20.03
2017-08-11T02:31:14.189Z,19.98
2017-08-11T02:32:24.104Z,20.01
2017-08-11T02:33:34.031Z,20.02
2017-08-11T02:34:43.995Z,20.05
2017-08-11T02:35:53.929Z,20.02
2017-08-11T02:37:04.185Z,20.06
2017-08-11T02:38:13.515Z,20.03
2017-08-11T02:39:23.755Z,20.06
2017-08-11T02:40:33.975Z,20.06
2017-08-11T02:41:43.992Z,19.98
2017-08-11T02:42:54.442Z,19.99
2017-08-11T02:44:04.695Z,19.96
2017-08-11T02:45:14.641Z,19.98
2017-08-11T02:46:24.859Z,20.01
2017-08-11T02:47:35.100Z,20.01
2017-08-11T02:48:45.348Z,20.05
2017-08-11T02:49:54.981Z,20.11
2017-08-11T02:51:04.988Z,20.01
2017-08-11T02:52:15.317Z,20.1
2017-08-11T02:53:25.243Z,20.1
2017-08-11T02:54:35.477Z,20.03
2017-08-11T02:55:45.716Z,20.03
2017-08-11T02:56:55.963Z,20.1
2017-08-11T02:58:05.889Z,20.14
2017-08-11T02:59:15.820Z,20.08
2017-08-11T03:00:26.044Z,20.13
2017-08-11T03:01:35.660Z,20.11
2017-08-11T03:02:45.892Z,20.23
2017-08-11T03:03:55.552Z,20.13
2017-08-11T03:05:05.531Z,20.23
2017-08-11T03:06:16.140Z,20.16
2017-08-11T03:07:26.083Z,20.08
2017-08-11T03:08:36.014Z,20.23
2017-08-11T03:09:46.322Z,20.18
2017-08-11T03:10:56.239Z,20.08
2017-08-11T03:12:06.150Z,20.06
2017-08-11T03:13:15.756Z,20.08
2017-08-11T03:14:25.976Z,20.11
2017-08-11T03:15:35.775Z,20.1
2017-08-11T03:16:45.698Z,20.14
2017-08-11T03:17:55.934Z,20.14
2017-08-11T03:19:06.167Z,20.1
2017-08-11T03:20:16.101Z,20.06
2017-08-11T03:21:26.831Z,20.08
2017-08-11T03:22:37.059Z,20.05
2017-08-11T03:23:46.689Z,20.1
2017-08-11T03:24:56.929Z,20.01
2017-08-11T03:26:07.161Z,20.11
2017-08-11T03:27:17.391Z,20.08
2017-08-11T03:28:27.086Z,20.1
2017-08-11T03:29:37.311Z,20.06
2017-08-11T03:30:47.276Z,20.03
2017-08-11T03:31:57.515Z,20.1
2017-08-11T03:33:07.970Z,20.06
2017-08-11T03:34:17.279Z,20.05
2017-08-11T03:35:27.199Z,20.06
2017-08-11T03:36:37.430Z,20.13
2017-08-11T03:37:47.390Z,20.08
2017-08-11T03:38:57.999Z,20.08
2017-08-11T03:40:07.623Z,20.11
2017-08-11T03:41:17.561Z,20.11
2017-08-11T03:42:27.494Z,20.08
2017-08-11T03:43:37.099Z,20.02
2017-08-11T03:44:47.173Z,20.13
2017-08-11T03:45:57.101Z,20.03
2017-08-11T03:47:06.716Z,20.01
2017-08-11T03:48:16.638Z,20.02
2017-08-11T03:49:26.868Z,20.01
2017-08-11T03:50:36.478Z,20.01
2017-08-11T03:51:46.702Z,19.99
2017-08-11T03:52:56.637Z,19.98
2017-08-11T03:54:06.261Z,19.99
2017-08-11T03:55:16.175Z,19.99
2017-08-11T03:56:26.698Z,19.99
2017-08-11T03:57:36.016Z,19.96
2017-08-11T03:58:45.652Z,19.98
2017-08-11T03:59:55.872Z,19.98
2017-08-11T04:01:06.098Z,20.02
2017-08-11T04:02:16.336Z,19.99
2017-08-11T04:03:26.581Z,20.05
2017-08-11T04:04:37.182Z,20.08
2017-08-11T04:05:47.112Z,19.95
2017-08-11T04:06:57.063Z,19.98
2017-08-11T04:08:07.141Z,19.96
2017-08-11T04:09:17.370Z,19.99
2017-08-11T04:10:27.335Z,20.02
2017-08-11T04:11:37.265Z,19.98
2017-08-11T04:12:47.509Z,19.96
2017-08-11T04:13:57.743Z,19.94
2017-08-11T04:15:07.674Z,19.86
2017-08-11T04:16:17.657Z,19.86
2017-08-11T04:17:27.581Z,19.86
2017-08-11T04:18:37.514Z,19.86
2017-08-11T04:19:48.067Z,19.94
2017-08-11T04:20:57.677Z,19.91
2017-08-11T04:22:07.626Z,19.94
2017-08-11T04:23:17.860Z,19.95
2017-08-11T04:24:27.504Z,19.94
2017-08-11T04:25:37.654Z,19.88
2017-08-11T04:26:47.641Z,19.94
2017-08-11T04:27:57.961Z,19.91
2017-08-11T04:29:07.337Z,19.95
2017-08-11T04:30:17.035Z,19.88
2017-08-11T04:31:27.009Z,19.96
2017-08-11T04:32:37.231Z,19.91
2017-08-11T04:33:47.164Z,19.94
2017-08-11T04:34:56.775Z,19.98
2017-08-11T04:36:07.000Z,20.2
2017-08-11T04:37:16.994Z,20.24
2017-08-11T04:38:26.635Z,20.21
2017-08-11T04:39:36.871Z,20.38
2017-08-11T04:40:47.108Z,20.47
2017-08-11T04:41:57.354Z,20.54
2017-08-11T04:43:07.685Z,20.52
2017-08-11T04:44:16.992Z,20.61
2017-08-11T04:45:26.923Z,20.69
2017-08-11T04:46:37.152Z,20.7
2017-08-11T04:47:47.088Z,20.79
2017-08-11T04:48:57.490Z,20.73
2017-08-11T04:50:07.122Z,20.82
2017-08-11T04:51:17.067Z,20.8
2017-08-11T04:52:26.685Z,20.94
2017-08-11T04:53:36.904Z,21.03
2017-08-11T04:54:47.303Z,20.99
2017-08-11T04:55:57.228Z,21.03
2017-08-11T04:57:07.187Z,20.94
2017-08-11T04:58:16.798Z,20.99
2017-08-11T04:59:26.407Z,21.03
2017-08-11T05:00:36.498Z,21.04
2017-08-11T05:01:46.124Z,21.13
2017-08-11T05:02:56.373Z,21.22
2017-08-11T05:04:06.606Z,21.28
2017-08-11T05:05:16.529Z,21.34
2017-08-11T05:06:26.753Z,21.49
2017-08-11T05:07:36.764Z,21.58
2017-08-11T05:08:46.704Z,21.64
2017-08-11T05:09:56.672Z,21.65
2017-08-11T05:11:06.611Z,21.75
2017-08-11T05:12:17.021Z,21.74
2017-08-11T05:13:26.942Z,21.88
2017-08-11T05:14:37.162Z,22.02
2017-08-11T05:15:47.090Z,21.96
2017-08-11T05:16:57.017Z,22.03
2017-08-11T05:18:07.390Z,22.1
2017-08-11T05:19:17.013Z,22.21
2017-08-11T05:20:26.938Z,22.18
2017-08-11T05:21:36.876Z,22.22
2017-08-11T05:22:46.494Z,22.3
2017-08-11T05:23:56.487Z,22.35
2017-08-11T05:25:05.822Z,22.4
2017-08-11T05:26:16.079Z,22.43
2017-08-11T05:27:26.310Z,22.42
2017-08-11T05:28:35.924Z,22.55
2017-08-11T05:29:46.200Z,22.54
2017-08-11T05:30:56.433Z,22.52
2017-08-11T05:32:06.363Z,22.6
2017-08-11T05:33:16.280Z,22.68
2017-08-11T05:34:25.914Z,22.65
2017-08-11T05:35:36.439Z,22.72
2017-08-11T05:36:46.683Z,22.7
2017-08-11T05:37:56.642Z,22.79
2017-08-11T05:39:06.600Z,22.8
2017-08-11T05:40:15.979Z,22.8
2017-08-11T05:41:25.899Z,22.9
2017-08-11T05:42:35.840Z,22.92
2017-08-11T05:43:45.162Z,22.86
2017-08-11T05:44:54.771Z,22.92
2017-08-11T05:46:04.398Z,23
2017-08-11T05:47:14.770Z,23.01
2017-08-11T05:48:24.702Z,23.07
2017-08-11T05:49:34.329Z,23.02
2017-08-11T05:50:44.261Z,23.16
2017-08-11T05:51:54.187Z,23.02
2017-08-11T05:53:03.650Z,23.17
2017-08-11T05:54:12.961Z,23.23
2017-08-11T05:55:23.193Z,23.22
2017-08-11T05:56:32.803Z,23.23
2017-08-11T05:57:42.956Z,23.28
2017-08-11T05:58:53.028Z,23.2
2017-08-11T06:00:02.655Z,23.15
2017-08-11T06:01:12.597Z,23.19
2017-08-11T06:02:22.517Z,23.28
2017-08-11T06:03:32.442Z,23.23
2017-08-11T06:04:42.417Z,23.33
2017-08-11T06:05:52.663Z,23.22
2017-08-11T06:07:02.891Z,23.32
2017-08-11T06:08:12.842Z,23.31
2017-08-11T06:09:22.766Z,23.33
2017-08-11T06:10:33.000Z,23.27
2017-08-11T06:11:42.941Z,23.23
2017-08-11T06:12:52.860Z,23.25
2017-08-11T06:14:02.486Z,23.25
2017-08-11T06:15:11.817Z,23.25
2017-08-11T06:16:21.515Z,23.4
2017-08-11T06:17:31.444Z,23.39
2017-08-11T06:18:41.384Z,23.33
2017-08-11T06:19:51.321Z,23.36
2017-08-11T06:21:01.245Z,23.35
2017-08-11T06:22:11.634Z,23.39
2017-08-11T06:23:21.566Z,23.39
2017-08-11T06:24:31.495Z,23.42
2017-08-11T06:25:40.818Z,23.4
2017-08-11T06:26:50.439Z,23.5
2017-08-11T06:28:00.525Z,23.5
2017-08-11T06:29:10.798Z,23.51
2017-08-11T06:30:21.063Z,23.53
2017-08-11T06:31:30.997Z,23.51
2017-08-11T06:32:40.326Z,23.51
2017-08-11T06:33:50.001Z,23.55
2017-08-11T06:35:00.254Z,23.54
2017-08-11T06:36:09.879Z,23.6
2017-08-11T06:37:19.511Z,23.57
2017-08-11T06:38:29.139Z,23.55
2017-08-11T06:39:39.215Z,23.55
2017-08-11T06:40:48.862Z,23.57
2017-08-11T06:41:59.096Z,23.58
2017-08-11T06:43:09.044Z,23.58
2017-08-11T06:44:18.997Z,23.6
2017-08-11T06:45:28.996Z,23.58
2017-08-11T06:46:39.242Z,23.61
2017-08-11T06:47:49.175Z,23.58
2017-08-11T06:48:59.133Z,23.54
2017-08-11T06:50:09.395Z,23.58
2017-08-11T06:51:19.119Z,23.58
2017-08-11T06:52:29.368Z,23.61
2017-08-11T06:53:38.984Z,23.61
2017-08-11T06:54:48.903Z,23.61
2017-08-11T06:55:58.545Z,23.66
2017-08-11T06:57:08.883Z,23.55
2017-08-11T06:58:19.113Z,23.54
2017-08-11T06:59:28.447Z,23.68
2017-08-11T07:00:38.382Z,23.61
2017-08-11T07:01:48.308Z,23.63
2017-08-11T07:02:57.620Z,23.66
2017-08-11T07:04:07.549Z,23.63
2017-08-11T07:05:17.190Z,23.69
2017-08-11T07:06:27.459Z,23.73
2017-08-11T07:07:37.417Z,23.72
2017-08-11T07:08:47.415Z,23.73
2017-08-11T07:09:57.046Z,23.73
2017-08-11T07:11:06.675Z,23.72
2017-08-11T07:12:16.924Z,23.73
2017-08-11T07:13:26.247Z,23.68
2017-08-11T07:14:36.595Z,23.72
2017-08-11T07:15:46.523Z,23.73
2017-08-11T07:16:56.454Z,23.66
2017-08-11T07:18:06.388Z,23.73
2017-08-11T07:19:16.335Z,23.78
2017-08-11T07:20:26.377Z,23.79
2017-08-11T07:21:36.625Z,23.75
2017-08-11T07:22:46.873Z,23.76
2017-08-11T07:23:57.127Z,23.76
2017-08-11T07:25:07.367Z,23.68
2017-08-11T07:26:17.588Z,23.7
2017-08-11T07:27:27.511Z,23.84
2017-08-11T07:28:37.440Z,23.79
2017-08-11T07:29:47.620Z,23.8
2017-08-11T07:30:57.549Z,23.84
2017-08-11T07:32:07.175Z,23.78
2017-08-11T07:33:17.410Z,23.75
2017-08-11T07:34:27.344Z,23.7
2017-08-11T07:35:37.282Z,23.84
2017-08-11T07:36:46.937Z,23.79
2017-08-11T07:37:56.857Z,23.73
2017-08-11T07:39:06.797Z,23.7
2017-08-11T07:40:16.715Z,23.79
2017-08-11T07:41:26.057Z,23.78
2017-08-11T07:42:36.330Z,23.79
2017-08-11T07:43:46.267Z,23.75
2017-08-11T07:44:56.515Z,23.78
2017-08-11T07:46:06.477Z,23.78
2017-08-11T07:47:16.120Z,23.83
2017-08-11T07:48:26.060Z,23.72
2017-08-11T07:49:36.299Z,23.85
2017-08-11T07:50:46.268Z,23.72
2017-08-11T07:51:56.506Z,23.88
2017-08-11T07:53:06.446Z,23.69
2017-08-11T07:54:16.397Z,23.83
2017-08-11T07:55:26.061Z,23.83
2017-08-11T07:56:35.687Z,23.79
2017-08-11T07:57:45.930Z,23.83
2017-08-11T07:58:55.876Z,23.79
2017-08-11T08:00:06.148Z,23.78
2017-08-11T08:01:15.933Z,23.8
2017-08-11T08:02:26.187Z,23.78
2017-08-11T08:03:35.815Z,23.75
2017-08-11T08:04:46.051Z,23.8
2017-08-11T08:05:55.987Z,23.78
2017-08-11T08:07:05.714Z,23.87
2017-08-11T08:08:15.944Z,23.76
2017-08-11T08:09:25.880Z,23.8
2017-08-11T08:10:35.507Z,23.79
2017-08-11T08:11:45.759Z,23.79
2017-08-11T08:12:55.389Z,23.79
2017-08-11T08:14:05.022Z,23.87
2017-08-11T08:15:14.339Z,23.85
2017-08-11T08:16:24.610Z,23.79
2017-08-11T08:17:34.547Z,23.84
2017-08-11T08:18:44.333Z,23.88
2017-08-11T08:19:54.587Z,23.9
2017-08-11T08:21:04.223Z,23.87
2017-08-11T08:22:13.844Z,23.87
2017-08-11T08:23:24.089Z,23.88
2017-08-11T08:24:34.069Z,23.9
2017-08-11T08:25:44.307Z,23.85
2017-08-11T08:26:54.255Z,23.97
2017-08-11T08:28:04.187Z,23.85
2017-08-11T08:29:13.806Z,23.91
2017-08-11T08:30:24.048Z,23.93
2017-08-11T08:31:33.668Z,23.88
2017-08-11T08:32:43.608Z,23.97
2017-08-11T08:33:53.579Z,23.83
2017-08-11T08:35:03.520Z,23.95
2017-08-11T08:36:13.962Z,23.9
2017-08-11T08:37:23.594Z,23.9
2017-08-11T08:38:33.514Z,23.93
2017-08-11T08:39:43.802Z,23.9
2017-08-11T08:40:54.057Z,23.88
2017-08-11T08:42:04.610Z,23.94
2017-08-11T08:43:14.872Z,23.95
2017-08-11T08:44:24.840Z,23.87
2017-08-11T08:45:34.790Z,23.88
2017-08-11T08:46:44.740Z,23.9
2017-08-11T08:47:55.158Z,23.9
2017-08-11T08:49:05.128Z,23.95
2017-08-11T08:50:15.365Z,23.85
2017-08-11T08:51:25.606Z,23.93
2017-08-11T08:52:35.565Z,23.88
2017-08-11T08:53:45.820Z,23.94
2017-08-11T08:54:56.094Z,23.91
2017-08-11T08:56:06.041Z,23.9
2017-08-11T08:57:15.993Z,23.95
2017-08-11T08:58:26.242Z,23.97
2017-08-11T08:59:36.022Z,23.83
2017-08-11T09:00:45.978Z,23.88
2017-08-11T09:01:56.251Z,23.9
2017-08-11T09:03:06.512Z,23.85
2017-08-11T09:04:16.465Z,23.9
2017-08-11T09:05:26.730Z,23.87
2017-08-11T09:06:36.389Z,23.85
2017-08-11T09:07:46.363Z,23.91
2017-08-11T09:08:55.385Z,23.85
2017-08-11T09:10:04.719Z,23.87
2017-08-11T09:11:15.265Z,23.9
2017-08-11T09:12:25.204Z,23.87
2017-08-11T09:13:34.828Z,23.9
2017-08-11T09:14:44.464Z,23.88
2017-08-11T09:15:54.705Z,23.93
2017-08-11T09:17:05.107Z,23.93
2017-08-11T09:18:15.385Z,23.91
2017-08-11T09:19:25.653Z,23.88
2017-08-11T09:20:35.584Z,23.91
2017-08-11T09:21:44.905Z,23.97
2017-08-11T09:22:55.158Z,23.97
2017-08-11T09:24:04.784Z,24
2017-08-11T09:25:14.418Z,23.91
2017-08-11T09:26:23.765Z,24.02
2017-08-11T09:27:34.015Z,24.05
2017-08-11T09:28:44.305Z,23.95
2017-08-11T09:29:53.641Z,24
2017-08-11T09:31:03.597Z,24.05
2017-08-11T09:32:13.840Z,24.08
2017-08-11T09:33:23.789Z,24.05
2017-08-11T09:34:33.875Z,24.06
2017-08-11T09:35:44.119Z,24.03
2017-08-11T09:36:54.051Z,24.03
2017-08-11T09:38:04.016Z,23.91
2017-08-11T09:39:13.993Z,24.03
2017-08-11T09:40:24.247Z,24.05
2017-08-11T09:41:33.873Z,24.02
2017-08-11T09:42:43.807Z,24.09
2017-08-11T09:43:53.738Z,24.03
2017-08-11T09:45:03.997Z,24.06
2017-08-11T09:46:13.777Z,24.06
2017-08-11T09:47:23.713Z,24.09
2017-08-11T09:48:33.964Z,24.09
2017-08-11T09:49:43.590Z,24.13
2017-08-11T09:50:53.211Z,24.1
2017-08-11T09:52:02.672Z,24.1
2017-08-11T09:53:12.290Z,24.09
2017-08-11T09:54:22.216Z,24.06
2017-08-11T09:55:32.510Z,24.12
2017-08-11T09:56:42.116Z,24.13
2017-08-11T09:57:52.361Z,24.05
2017-08-11T09:59:02.286Z,24.18
2017-08-11T10:00:12.231Z,24.15
2017-08-11T10:01:22.174Z,24.15
2017-08-11T10:02:32.126Z,24.12
2017-08-11T10:03:42.064Z,24.05
2017-08-11T10:04:51.703Z,24.03
2017-08-11T10:06:01.965Z,24.12
2017-08-11T10:07:11.891Z,24.06
2017-08-11T10:08:21.877Z,24.08
2017-08-11T10:09:31.822Z,24.18
2017-08-11T10:10:42.080Z,24.18
2017-08-11T10:11:51.426Z,24.06
2017-08-11T10:13:01.055Z,24.16
2017-08-11T10:14:10.998Z,24.16
2017-08-11T10:15:21.237Z,24.13
2017-08-11T10:16:30.862Z,24.16
2017-08-11T10:17:40.814Z,24.13
2017-08-11T10:18:50.750Z,24.24
2017-08-11T10:20:01.028Z,24.16
2017-08-11T10:21:11.145Z,24.15
2017-08-11T10:22:20.762Z,24.21
2017-08-11T10:23:31.013Z,24.27
2017-08-11T10:24:40.631Z,24.3
2017-08-11T10:25:50.570Z,24.22
2017-08-11T10:27:00.916Z,24.21
2017-08-11T10:28:10.849Z,24.31
2017-08-11T10:29:21.105Z,24.3
2017-08-11T10:30:30.421Z,24.28
2017-08-11T10:31:40.072Z,24.3
2017-08-11T10:32:49.993Z,24.09
2017-08-11T10:33:59.946Z,24.31
2017-08-11T10:35:09.578Z,24.34
2017-08-11T10:36:19.202Z,24.13
2017-08-11T10:37:29.138Z,24.18
2017-08-11T10:38:39.195Z,24.22
2017-08-11T10:39:49.439Z,24.25
2017-08-11T10:40:59.686Z,24.18
2017-08-11T10:42:09.932Z,24.24
2017-08-11T10:43:19.871Z,24.21
2017-08-11T10:44:30.103Z,24.24
2017-08-11T10:45:40.342Z,24.24
2017-08-11T10:46:50.593Z,24.28
2017-08-11T10:48:00.529Z,24.25
2017-08-11T10:49:10.482Z,24.25
2017-08-11T10:50:20.879Z,24.34
2017-08-11T10:51:30.803Z,24.22
2017-08-11T10:52:40.747Z,24.34
2017-08-11T10:53:50.980Z,24.31
2017-08-11T10:55:00.905Z,24.34
2017-08-11T10:56:11.168Z,24.28
2017-08-11T10:57:21.104Z,24.28
2017-08-11T10:58:31.048Z,24.3
2017-08-11T10:59:40.356Z,24.3
2017-08-11T11:00:50.291Z,24.2
2017-08-11T11:01:59.775Z,24.31
2017-08-11T11:03:09.707Z,24.28
2017-08-11T11:04:19.650Z,24.28
2017-08-11T11:05:29.577Z,24.28
2017-08-11T11:06:39.518Z,24.3
2017-08-11T11:07:49.902Z,24.31
2017-08-11T11:08:59.841Z,24.3
2017-08-11T11:10:09.484Z,24.39
2017-08-11T11:11:18.807Z,24.31
2017-08-11T11:12:28.745Z,24.28
2017-08-11T11:13:38.822Z,24.3
2017-08-11T11:14:48.766Z,24.31
2017-08-11T11:15:58.096Z,24.28
2017-08-11T11:17:08.351Z,24.3
2017-08-11T11:18:18.274Z,24.31
2017-08-11T11:19:28.331Z,24.31
2017-08-11T11:20:38.272Z,24.3
2017-08-11T11:21:47.899Z,24.3
2017-08-11T11:22:58.136Z,24.31
2017-08-11T11:24:08.370Z,24.37
2017-08-11T11:25:17.999Z,24.31
2017-08-11T11:26:28.238Z,24.35
2017-08-11T11:27:37.548Z,24.31
2017-08-11T11:28:47.522Z,24.31
2017-08-11T11:29:57.464Z,24.32
2017-08-11T11:31:07.702Z,24.28
2017-08-11T11:32:17.649Z,24.3
2017-08-11T11:33:27.600Z,24.3
2017-08-11T11:34:37.531Z,24.13
2017-08-11T11:35:47.779Z,24.21
2017-08-11T11:36:58.257Z,24.27
2017-08-11T11:38:07.891Z,24.3
2017-08-11T11:39:18.202Z,24.27
2017-08-11T11:40:28.150Z,24.21
2017-08-11T11:41:38.389Z,24.3
2017-08-11T11:42:48.945Z,24.25
2017-08-11T11:43:58.585Z,24.31
2017-08-11T11:45:08.565Z,24.27
2017-08-11T11:46:18.853Z,24.31
2017-08-11T11:47:29.095Z,24.28
2017-08-11T11:48:39.103Z,24.21
2017-08-11T11:49:49.098Z,24.21
2017-08-11T11:50:59.050Z,24.24
2017-08-11T11:52:09.314Z,24.18
2017-08-11T11:53:19.254Z,24.16
2017-08-11T11:54:29.370Z,24.22
2017-08-11T11:55:39.620Z,24.24
2017-08-11T11:56:49.576Z,24.18
2017-08-11T11:57:59.827Z,24.24
2017-08-11T11:59:09.764Z,24.12
2017-08-11T12:00:19.847Z,24.22
2017-08-11T12:01:29.768Z,24.22
2017-08-11T12:02:39.697Z,24.25
2017-08-11T12:03:49.651Z,24.22
2017-08-11T12:04:59.281Z,24.22
2017-08-11T12:06:09.379Z,24.24
2017-08-11T12:07:19.626Z,24.22
2017-08-11T12:08:29.250Z,24.27
2017-08-11T12:09:38.562Z,24.21
2017-08-11T12:10:48.533Z,24.25
2017-08-11T12:11:58.773Z,24.22
2017-08-11T12:13:08.713Z,24.12
2017-08-11T12:14:18.652Z,24.22
2017-08-11T12:15:28.586Z,24.2
2017-08-11T12:16:38.226Z,24.2
2017-08-11T12:17:47.879Z,24.16
2017-08-11T12:18:57.839Z,24.16
2017-08-11T12:20:07.461Z,24.2
2017-08-11T12:21:17.393Z,24.2
2017-08-11T12:22:27.029Z,24.24
2017-08-11T12:23:36.968Z,24.2
2017-08-11T12:24:47.201Z,24.24
2017-08-11T12:25:56.873Z,24.2
2017-08-11T12:27:07.139Z,24.16
2017-08-11T12:28:17.086Z,24.25
2017-08-11T12:29:27.482Z,24.27
2017-08-11T12:30:37.736Z,24.08
2017-08-11T12:31:46.750Z,24.2
2017-08-11T12:32:57.004Z,24.21
2017-08-11T12:34:07.258Z,24.25
2017-08-11T12:35:17.204Z,24.25
2017-08-11T12:36:27.142Z,24.18
2017-08-11T12:37:37.429Z,24.18
2017-08-11T12:38:47.369Z,24.27
2017-08-11T12:39:57.300Z,24.12
2017-08-11T12:41:07.218Z,24.2
2017-08-11T12:42:17.466Z,24.21
2017-08-11T12:43:27.699Z,24.3
2017-08-11T12:44:37.320Z,24.25
2017-08-11T12:45:47.556Z,24.3
2017-08-11T12:46:57.044Z,24.21
2017-08-11T12:48:06.973Z,24.28
2017-08-11T12:49:16.600Z,24.13
2017-08-11T12:50:26.567Z,24.25
2017-08-11T12:51:36.523Z,24.21
2017-08-11T12:52:46.480Z,24.27
2017-08-11T12:53:56.452Z,24.27
2017-08-11T12:55:06.154Z,24.32
2017-08-11T12:56:15.782Z,24.24
2017-08-11T12:57:26.042Z,24.27
2017-08-11T12:58:36.320Z,24.22
2017-08-11T12:59:46.262Z,24.12
2017-08-11T13:00:55.904Z,24.09
2017-08-11T13:02:06.160Z,24.2
2017-08-11T13:03:16.401Z,24.32
2017-08-11T13:04:25.570Z,24.08
2017-08-11T13:05:35.540Z,24.28
2017-08-11T13:06:45.795Z,24.15
2017-08-11T13:07:56.037Z,24.32
2017-08-11T13:09:06.549Z,24.28
2017-08-11T13:10:16.518Z,24.27
2017-08-11T13:11:26.785Z,24.3
2017-08-11T13:12:36.742Z,24.3
2017-08-11T13:13:46.378Z,24.27
2017-08-11T13:14:56.000Z,24.28
2017-08-11T13:16:05.949Z,24.28
2017-08-11T13:17:15.572Z,24.32
2017-08-11T13:18:25.203Z,24.25
2017-08-11T13:19:34.823Z,24.25
2017-08-11T13:20:44.474Z,24.28
2017-08-11T13:21:54.714Z,24.28
2017-08-11T13:23:04.948Z,24.3
2017-08-11T13:24:14.591Z,24.28
2017-08-11T13:25:24.828Z,24.31
2017-08-11T13:26:34.818Z,24.27
2017-08-11T13:27:44.466Z,24.3
2017-08-11T13:28:54.723Z,24.28
2017-08-11T13:30:04.661Z,24.31
2017-08-11T13:31:14.919Z,24.32
2017-08-11T13:32:25.147Z,24.3
2017-08-11T13:33:35.395Z,24.32
2017-08-11T13:34:45.632Z,24.28
2017-08-11T13:35:55.262Z,24.34
2017-08-11T13:37:04.984Z,24.09
2017-08-11T13:38:15.214Z,24.25
2017-08-11T13:39:24.903Z,24.28
2017-08-11T13:40:34.235Z,24.27
2017-08-11T13:41:44.161Z,24.31
2017-08-11T13:42:54.093Z,24.31
2017-08-11T13:44:04.033Z,24.25
2017-08-11T13:45:13.972Z,24.22
2017-08-11T13:46:24.226Z,24.16
2017-08-11T13:47:34.154Z,24.21
2017-08-11T13:48:44.090Z,24.13
2017-08-11T13:49:53.709Z,24.13
2017-08-11T13:51:03.640Z,24.25
2017-08-11T13:52:12.964Z,24.21
2017-08-11T13:53:22.917Z,24.15
2017-08-11T13:54:32.861Z,24.22
2017-08-11T13:55:42.789Z,24.15
2017-08-11T13:56:52.415Z,24.12
2017-08-11T13:58:02.672Z,24.2
2017-08-11T13:59:13.072Z,24.09
2017-08-11T14:00:23.009Z,24.05
2017-08-11T14:01:32.328Z,24.06
2017-08-11T14:02:42.270Z,24.15
2017-08-11T14:03:52.522Z,24.16
2017-08-11T14:05:02.607Z,24.06
2017-08-11T14:06:12.238Z,24.18
2017-08-11T14:07:21.885Z,24.09
2017-08-11T14:08:31.541Z,24.13
2017-08-11T14:09:41.801Z,24.13
2017-08-11T14:10:51.597Z,24.15
2017-08-11T14:12:01.836Z,24.1
2017-08-11T14:13:12.082Z,24.1
2017-08-11T14:14:21.719Z,24.09
2017-08-11T14:15:31.988Z,24.12
2017-08-11T14:16:42.230Z,24.1
2017-08-11T14:17:51.881Z,23.94
2017-08-11T14:19:01.832Z,24.12
2017-08-11T14:20:12.118Z,24.1
2017-08-11T14:21:21.755Z,24.1
2017-08-11T14:22:32.115Z,24.06
2017-08-11T14:23:42.375Z,24.09
2017-08-11T14:24:52.037Z,24.05
2017-08-11T14:26:01.973Z,24.09
2017-08-11T14:27:11.951Z,24.1
2017-08-11T14:28:22.359Z,24.08
2017-08-11T14:29:31.994Z,24.02
2017-08-11T14:30:41.655Z,24.06
2017-08-11T14:31:50.970Z,24.06
2017-08-11T14:33:00.900Z,24.03
2017-08-11T14:34:10.828Z,24
2017-08-11T14:35:21.170Z,24.03
2017-08-11T14:36:31.119Z,24.02
2017-08-11T14:37:40.778Z,24.1
2017-08-11T14:38:50.419Z,23.98
2017-08-11T14:40:00.493Z,24.06
2017-08-11T14:41:09.816Z,24.06
2017-08-11T14:42:19.753Z,24.05
2017-08-11T14:43:29.701Z,24.03
2017-08-11T14:44:39.969Z,24.02
2017-08-11T14:45:49.906Z,24.03
2017-08-11T14:46:59.846Z,24.05
2017-08-11T14:48:10.087Z,24.03
2017-08-11T14:49:19.726Z,24
2017-08-11T14:50:29.664Z,23.94
2017-08-11T14:51:39.768Z,24.03
2017-08-11T14:52:49.398Z,24.06
2017-08-11T14:53:59.360Z,24.05
2017-08-11T14:55:09.636Z,24.03
2017-08-11T14:56:19.279Z,24.02
2017-08-11T14:57:29.540Z,23.98
2017-08-11T14:58:39.491Z,23.95
2017-08-11T14:59:49.124Z,24.09
2017-08-11T15:00:59.093Z,24.05
2017-08-11T15:02:08.726Z,24.03
2017-08-11T15:03:19.280Z,24.09
2017-08-11T15:04:29.290Z,24.06
2017-08-11T15:05:39.579Z,24